Midas — OIZZ — position and weather

sailwx.info

Track history (hours):
 
Tides and Currents Weather Stations Pressure Air Temp Water Temp Dewpoint Dewpoint Depression Visibility Wind Speed Wind Dir Waves Ship Positions

Midas

Last reported at 2018-Feb-24 02:29 UTC. Time now 2018-Feb-24 03:46 UTC.
Position N 18°01' W 063°03'.

Length 108 m; draft 5.2 m.

Type: Cargo ship. MMSI: 230186000.

Date/timePositionNaut miles runAvg speedWind from/ knotsBaromVisibWave heightAir tempDewpointWater temp
2018-Feb-24 02:29N 18°01' W 063°03'0 0.0
2018-Feb-24 01:56N 18°01' W 063°03'0 0.0
2018-Feb-24 01:14N 18°01' W 063°03'0 0.0
2018-Feb-24 00:59N 18°01' W 063°03'0 0.0
2018-Feb-24 00:29N 18°01' W 063°03'0 0.6
2018-Feb-23 23:57N 18°00' W 063°03'3 7.4
2018-Feb-23 23:30N 18°01' W 063°06'0 0.2
2018-Feb-23 22:50N 18°01' W 063°06'0 0.1
2018-Feb-23 22:29N 18°01' W 063°06'0 0.0
2018-Feb-23 21:59N 18°01' W 063°06'0 0.0
2018-Feb-23 21:29N 18°01' W 063°06'0 0.1
2018-Feb-23 20:50N 18°01' W 063°06'0 0.1
2018-Feb-23 20:20N 18°01' W 063°06'0 0.0
2018-Feb-23 19:50N 18°01' W 063°06'0 0.0
2018-Feb-23 19:20N 18°01' W 063°06'0 0.0
2018-Feb-23 18:53N 18°01' W 063°06'0 0.0
2018-Feb-23 18:20N 18°01' W 063°06'0 0.1
2018-Feb-23 17:53N 18°01' W 063°06'0 0.0
2018-Feb-23 17:23N 18°01' W 063°06'0 0.0
2018-Feb-23 16:53N 18°01' W 063°06'0 0.0
2018-Feb-23 16:23N 18°01' W 063°06'0 0.0
2018-Feb-23 15:53N 18°01' W 063°06'0 0.0
2018-Feb-23 15:23N 18°01' W 063°06'0 0.1
2018-Feb-23 14:50N 18°01' W 063°06'0 0.0
2018-Feb-23 14:23N 18°01' W 063°06'0 0.1
2018-Feb-23 13:56N 18°01' W 063°06'0 0.0
2018-Feb-23 13:26N 18°01' W 063°06'0 0.2
2018-Feb-23 13:00N 18°01' W 063°06'4 6.5
2018-Feb-23 12:27N 18°01' W 063°03'0 0.0
2018-Feb-23 12:00N 18°01' W 063°03'0 0.1
2018-Feb-23 11:26N 18°01' W 063°03'3 6.0
2018-Feb-23 10:57N 17°58' W 063°01'610.3
2018-Feb-23 10:20N 17°52' W 062°60'3 9.7
2018-Feb-23 09:59N 17°49' W 062°59'712.4
2018-Feb-23 09:27N 17°42' W 062°58'612.6
2018-Feb-23 08:59N 17°36' W 062°56'612.6
2018-Feb-23 08:30N 17°30' W 062°55'712.3
2018-Feb-23 07:56N 17°24' W 062°54'1312.0
2018-Feb-23 06:52N 17°13' W 062°47'512.0
2018-Feb-23 06:28N 17°09' W 062°44'612.7
2018-Feb-23 05:59N 17°04' W 062°41'612.3
2018-Feb-23 05:28N 16°59' W 062°37'1512.3
2018-Feb-23 04:14N 16°46' W 062°27'312.4
2018-Feb-23 04:00N 16°44' W 062°26'713.1
2018-Feb-23 03:27N 16°38' W 062°22'614.6
2018-Feb-23 03:01N 16°33' W 062°18'714.5
2018-Feb-23 02:30N 16°27' W 062°13'714.4
2018-Feb-23 02:01N 16°21' W 062°08'714.5
2018-Feb-23 01:30N 16°16' W 062°03'814.6
2018-Feb-23 00:59N 16°10' W 061°58'714.9
2018-Feb-23 00:29N 16°04' W 061°53'714.5
2018-Feb-23 00:01N 15°59' W 061°48'1611.8
2018-Feb-22 22:37N 16°02' W 061°32'414.0
2018-Feb-22 22:22N 16°06' W 061°31'512.7
2018-Feb-22 21:56N 16°12' W 061°31'3 6.2
2018-Feb-22 21:30N 16°14' W 061°33'0 0.0
2018-Feb-22 20:58N 16°14' W 061°33'0 0.0
2018-Feb-22 20:28N 16°14' W 061°33'0 0.0
2018-Feb-22 19:58N 16°14' W 061°33'0 0.0
2018-Feb-22 19:28N 16°14' W 061°33'0 0.0
2018-Feb-22 18:49N 16°14' W 061°33'0 0.0
2018-Feb-22 18:25N 16°14' W 061°33'0 0.0
2018-Feb-22 17:58N 16°14' W 061°33'0 0.0
2018-Feb-22 17:13N 16°14' W 061°33'0 0.0
2018-Feb-22 16:58N 16°14' W 061°33'0 0.0
2018-Feb-22 16:28N 16°14' W 061°33'0 0.0
2018-Feb-22 15:58N 16°14' W 061°33'0 0.0
2018-Feb-22 15:28N 16°14' W 061°33'0 0.0
2018-Feb-22 14:55N 16°14' W 061°33'0 0.0
2018-Feb-22 14:28N 16°14' W 061°33'0 0.0
2018-Feb-22 13:58N 16°14' W 061°33'0 0.0
2018-Feb-22 13:28N 16°14' W 061°33'0 0.0
2018-Feb-22 12:55N 16°14' W 061°33'0 0.0
2018-Feb-22 12:28N 16°14' W 061°33'0 0.0
2018-Feb-22 11:58N 16°14' W 061°33'0 0.0
2018-Feb-22 11:28N 16°14' W 061°33'0 0.0
2018-Feb-22 10:58N 16°14' W 061°33'0 0.3
2018-Feb-22 10:30N 16°14' W 061°33'4 8.3
2018-Feb-22 10:00N 16°10' W 061°31'5 9.1
2018-Feb-22 09:30N 16°06' W 061°30'17 5.8
2018-Feb-22 06:34N 15°59' W 061°46'2 8.3
2018-Feb-22 06:21N 16°01' W 061°47'11 8.8
2018-Feb-22 05:03N 16°10' W 061°55'0 9.4
2018-Feb-22 05:00N 16°10' W 061°55'18 9.2
2018-Feb-22 03:04N 16°22' W 062°09'1 9.5
2018-Feb-22 03:00N 16°22' W 062°09'5 9.3
2018-Feb-22 02:30N 16°26' W 062°12'4 8.9
2018-Feb-22 02:00N 16°29' W 062°15'4 8.9
2018-Feb-22 01:30N 16°33' W 062°18'5 8.6
2018-Feb-22 00:59N 16°37' W 062°20'4 9.1
2018-Feb-22 00:30N 16°40' W 062°23'5 9.1
2018-Feb-22 00:00N 16°44' W 062°26'4 8.5
2018-Feb-21 23:30N 16°48' W 062°28'7 8.6
2018-Feb-21 22:39N 16°54' W 062°33'1 8.6
2018-Feb-21 22:30N 16°55' W 062°34'5 8.8
2018-Feb-21 21:58N 16°58' W 062°36'4 8.7
2018-Feb-21 21:30N 17°02' W 062°39'4 8.6
2018-Feb-21 20:59N 17°05' W 062°42'4 8.9
2018-Feb-21 20:30N 17°09' W 062°44'12 8.6
2018-Feb-21 19:08N 17°18' W 062°51'3 8.6
2018-Feb-21 18:50N 17°21' W 062°53'3 9.0
2018-Feb-21 18:27N 17°24' W 062°54'4 8.9
2018-Feb-21 17:59N 17°28' W 062°54'4 8.7
2018-Feb-21 17:29N 17°32' W 062°54'5 8.8
2018-Feb-21 16:58N 17°37' W 062°54'4 8.5
2018-Feb-21 16:30N 17°41' W 062°54'4 8.6
2018-Feb-21 15:59N 17°45' W 062°54'4 8.5
2018-Feb-21 15:28N 17°49' W 062°54'4 8.7
2018-Feb-21 15:00N 17°53' W 062°54'1 0.3
2018-Feb-21 10:28N 17°54' W 062°52'5 9.4
2018-Feb-21 09:57N 17°56' W 062°57'6 9.8
2018-Feb-21 09:23N 17°59' W 063°02'1 2.5
2018-Feb-21 08:51N 18°01' W 063°03'0 0.0
2018-Feb-21 08:30N 18°01' W 063°03'0 0.0
2018-Feb-21 07:51N 18°01' W 063°03'0 0.0
2018-Feb-21 07:30N 18°01' W 063°03'0 0.0
2018-Feb-21 06:51N 18°01' W 063°03'0 0.0
2018-Feb-21 06:21N 18°01' W 063°03'0 0.0
2018-Feb-21 05:51N 18°01' W 063°03'0 0.0
2018-Feb-21 05:21N 18°01' W 063°03'0 0.0
2018-Feb-21 04:51N 18°01' W 063°03'0 0.0
2018-Feb-21 04:24N 18°01' W 063°03'0 0.0
2018-Feb-21 03:54N 18°01' W 063°03'0 0.0
2018-Feb-21 03:24N 18°01' W 063°03'0 0.0
2018-Feb-21 02:48N 18°01' W 063°03'0 0.0
2018-Feb-21 02:20N 18°01' W 063°03'0 0.0
2018-Feb-21 01:51N 18°01' W 063°03'0 0.0
2018-Feb-21 01:05N 18°01' W 063°03'0 0.0
2018-Feb-21 00:54N 18°01' W 063°03'0 0.0
2018-Feb-21 00:23N 18°01' W 063°03'0 0.0
2018-Feb-20 23:56N 18°01' W 063°03'0 0.0
2018-Feb-20 23:26N 18°01' W 063°03'0 0.2
2018-Feb-20 22:39N 18°01' W 063°03'1 7.5
2018-Feb-20 22:27N 17°60' W 063°04'612.9
2018-Feb-20 21:59N 17°59' W 063°10'612.6
2018-Feb-20 21:30N 17°57' W 063°17'712.6
2018-Feb-20 20:58N 17°56' W 063°24'612.2
2018-Feb-20 20:28N 17°55' W 063°30'611.8
2018-Feb-20 19:57N 17°53' W 063°36'611.7
2018-Feb-20 19:25N 17°52' W 063°42'  
2018-Feb-18 03:25N 18°08' W 063°39'4 8.2
2018-Feb-18 02:58N 18°07' W 063°36'4 8.1
2018-Feb-18 02:29N 18°06' W 063°32'4 8.4
2018-Feb-18 02:00N 18°05' W 063°27'4 8.3
2018-Feb-18 01:30N 18°04' W 063°23'4 8.0
2018-Feb-18 00:59N 18°04' W 063°19'4 8.1
2018-Feb-18 00:28N 18°03' W 063°15'4 7.9
2018-Feb-18 00:00N 18°02' W 063°11'4 8.4
2018-Feb-17 23:29N 18°01' W 063°06'4 6.0
2018-Feb-17 22:53N 18°01' W 063°03'0 0.0
2018-Feb-17 22:26N 18°01' W 063°03'0 0.0
2018-Feb-17 21:56N 18°01' W 063°03'0 0.0
2018-Feb-17 21:23N 18°01' W 063°03'0 0.0
2018-Feb-17 20:53N 18°01' W 063°03'0 0.0
2018-Feb-17 17:44N 18°01' W 063°03'0 0.1
2018-Feb-17 17:28N 18°01' W 063°03'4 8.0
2018-Feb-17 16:57N 17°58' W 062°60'7 0.5
2018-Feb-17 03:39N 17°55' W 062°53'2 8.5
2018-Feb-17 03:22N 17°55' W 062°55'512.5
2018-Feb-17 03:00N 17°58' W 062°60'4 7.6
2018-Feb-17 02:27N 18°01' W 063°03'0 0.0
2018-Feb-17 01:42N 18°01' W 063°03'0 0.0
2018-Feb-17 01:27N 18°01' W 063°03'0 0.0
2018-Feb-17 00:42N 18°01' W 063°03'0 0.0
2018-Feb-17 00:27N 18°01' W 063°03'0 0.0
2018-Feb-16 23:54N 18°01' W 063°03'0 0.0
2018-Feb-16 23:24N 18°01' W 063°03'0 0.0
2018-Feb-16 22:54N 18°01' W 063°03'0 0.0
2018-Feb-16 22:30N 18°01' W 063°03'0 0.0
2018-Feb-16 21:42N 18°01' W 063°03'0 0.0
2018-Feb-16 21:30N 18°01' W 063°03'0 0.0
2018-Feb-16 20:39N 18°01' W 063°03'0 0.0
2018-Feb-16 19:14N 18°01' W 063°03'0 0.0
2018-Feb-16 18:59N 18°01' W 063°03'0 0.0
2018-Feb-16 18:26N 18°01' W 063°03'0 0.0
2018-Feb-16 17:59N 18°01' W 063°03'0 0.0
2018-Feb-16 17:26N 18°01' W 063°03'0 0.0
2018-Feb-16 16:18N 18°01' W 063°03'0 0.0
2018-Feb-16 15:48N 18°01' W 063°03'0 0.0
2018-Feb-16 14:47N 18°01' W 063°03'1 0.8
2018-Feb-16 14:06N 18°00' W 063°03'2 7.6
2018-Feb-16 13:51N 17°59' W 063°02'711.5
2018-Feb-16 13:15N 17°52' W 062°60'2 9.5
2018-Feb-16 13:00N 17°50' W 062°59'612.0
2018-Feb-16 12:28N 17°44' W 062°58'612.0
2018-Feb-16 11:58N 17°38' W 062°57'712.0
2018-Feb-16 11:24N 17°31' W 062°55'511.6
2018-Feb-16 11:00N 17°26' W 062°55'1812.3
2018-Feb-16 09:30N 17°10' W 062°46'713.9
2018-Feb-16 09:00N 17°05' W 062°41'713.7
2018-Feb-16 08:29N 16°59' W 062°37'1613.7
2018-Feb-16 07:18N 16°46' W 062°27'413.7
2018-Feb-16 07:00N 16°43' W 062°24'713.4
2018-Feb-16 06:29N 16°37' W 062°20'613.5
2018-Feb-16 06:00N 16°32' W 062°15'713.9
2018-Feb-16 05:30N 16°27' W 062°11'713.7
2018-Feb-16 05:00N 16°21' W 062°07'713.3
2018-Feb-16 04:30N 16°16' W 062°03'713.3
2018-Feb-16 04:00N 16°11' W 061°58'1414.2
2018-Feb-16 03:00N 15°60' W 061°49'1910.3
2018-Feb-16 01:10N 16°08' W 061°31'511.0
2018-Feb-16 00:44N 16°13' W 061°32'1 4.7
2018-Feb-16 00:29N 16°14' W 061°33'0 0.0
2018-Feb-15 23:59N 16°14' W 061°33'0 0.0
2018-Feb-15 23:20N 16°14' W 061°33'0 0.0
2018-Feb-15 22:56N 16°14' W 061°33'0 0.0
2018-Feb-15 22:29N 16°14' W 061°33'0 0.0
2018-Feb-15 21:59N 16°14' W 061°33'0 0.0
2018-Feb-15 21:29N 16°14' W 061°33'0 0.0
2018-Feb-15 20:56N 16°14' W 061°33'0 0.0
2018-Feb-15 20:29N 16°14' W 061°33'0 0.0
2018-Feb-15 19:56N 16°14' W 061°33'0 0.0
2018-Feb-15 19:29N 16°14' W 061°33'0 0.0
2018-Feb-15 18:59N 16°14' W 061°33'0 0.0
2018-Feb-15 18:29N 16°14' W 061°33'0 0.0
2018-Feb-15 17:59N 16°14' W 061°33'0 0.0
2018-Feb-15 17:29N 16°14' W 061°33'0 0.0
2018-Feb-15 16:59N 16°14' W 061°33'0 0.0
2018-Feb-15 16:29N 16°14' W 061°33'0 0.0
2018-Feb-15 15:56N 16°14' W 061°33'0 0.2
2018-Feb-15 15:24N 16°14' W 061°33'3 7.9
2018-Feb-15 15:00N 16°11' W 061°31'5 8.5
2018-Feb-15 14:29N 16°07' W 061°31'43 6.6
2018-Feb-15 07:59N 16°25' W 062°11'5 9.6
2018-Feb-15 07:30N 16°28' W 062°14'5 9.1
2018-Feb-15 07:00N 16°32' W 062°17'4 8.7
2018-Feb-15 06:29N 16°36' W 062°19'4 8.9
2018-Feb-15 06:00N 16°39' W 062°22'4 9.1
2018-Feb-15 05:30N 16°43' W 062°25'5 9.2
2018-Feb-15 05:00N 16°47' W 062°28'5 9.2
2018-Feb-15 04:30N 16°50' W 062°30'5 9.3
2018-Feb-15 03:56N 16°55' W 062°34'4 9.1
2018-Feb-15 03:29N 16°58' W 062°36'4 9.1
2018-Feb-15 03:00N 17°02' W 062°39'5 8.9
2018-Feb-15 02:28N 17°05' W 062°42'4 8.9
2018-Feb-15 01:59N 17°09' W 062°45'11 9.0
2018-Feb-15 00:46N 17°18' W 062°51'17 8.9
2018-Feb-14 22:50N 17°34' W 062°56'3 8.9
2018-Feb-14 22:27N 17°38' W 062°57'4 9.0
2018-Feb-14 21:59N 17°42' W 062°58'4 9.2
2018-Feb-14 21:30N 17°46' W 062°59'5 9.1
2018-Feb-14 20:54N 17°52' W 062°60'5 9.2
2018-Feb-14 20:23N 17°56' W 063°01'4 8.7
2018-Feb-14 19:52N 18°00' W 063°03'0 1.0
2018-Feb-14 19:28N 18°01' W 063°03'0 0.0
2018-Feb-14 18:55N 18°01' W 063°03'0 0.0
2018-Feb-14 18:25N 18°01' W 063°03'0 0.0
2018-Feb-14 17:46N 18°01' W 063°03'0 0.0
2018-Feb-14 14:49N 18°01' W 063°03'0 0.0
2018-Feb-14 14:13N 18°01' W 063°03'0 0.0
2018-Feb-14 13:58N 18°01' W 063°03'0 0.0
2018-Feb-14 13:28N 18°01' W 063°03'0 0.0
2018-Feb-14 12:43N 18°01' W 063°03'0 0.0
2018-Feb-14 12:19N 18°01' W 063°03'0 0.0
2018-Feb-14 11:49N 18°01' W 063°03'0 0.0
2018-Feb-14 11:16N 18°01' W 063°03'0 0.0
2018-Feb-14 10:49N 18°01' W 063°03'0 0.0
2018-Feb-14 10:31N 18°01' W 063°03'1 1.9
2018-Feb-14 09:51N 18°00' W 063°04'4 6.4
2018-Feb-14 09:16N 18°01' W 063°08'2 6.2
2018-Feb-14 08:57N 18°01' W 063°10'3 5.7
2018-Feb-14 08:28N 18°01' W 063°13'3 6.2
2018-Feb-14 07:58N 18°02' W 063°16'3 5.9
2018-Feb-14 07:30N 18°02' W 063°19'3 6.5
2018-Feb-14 06:59N 18°03' W 063°22'4 6.9
2018-Feb-14 06:29N 18°04' W 063°26'4 6.9
2018-Feb-14 05:58N 18°04' W 063°30'3 6.6
2018-Feb-14 05:30N 18°05' W 063°33'3 6.6
2018-Feb-14 04:59N 18°05' W 063°36'3 6.6
2018-Feb-14 04:28N 18°06' W 063°40'3 6.7
2018-Feb-14 04:00N 18°06' W 063°43'3 6.7
2018-Feb-14 03:30N 18°07' W 063°47'  
Track history (hours):
 
Tides and Currents Weather Stations Pressure Air Temp Water Temp Dewpoint Dewpoint Depression Visibility Wind Speed Wind Dir Waves Ship Positions

Midas

Last reported at 2018-Feb-24 02:29 UTC. Time now 2018-Feb-24 03:46 UTC.
Position N 18°01' W 063°03'.

Length 108 m; draft 5.2 m.

Type: Cargo ship. MMSI: 230186000.

Date/timePositionNaut miles runAvg speedWind from/ knotsBaromVisibWave heightAir tempDewpointWater temp
2018-Feb-24 02:29N 18°01' W 063°03'0 0.0
2018-Feb-24 01:56N 18°01' W 063°03'0 0.0
2018-Feb-24 01:14N 18°01' W 063°03'0 0.0
2018-Feb-24 00:59N 18°01' W 063°03'0 0.0
2018-Feb-24 00:29N 18°01' W 063°03'0 0.6
2018-Feb-23 23:57N 18°00' W 063°03'3 7.4
2018-Feb-23 23:30N 18°01' W 063°06'0 0.2
2018-Feb-23 22:50N 18°01' W 063°06'0 0.1
2018-Feb-23 22:29N 18°01' W 063°06'0 0.0
2018-Feb-23 21:59N 18°01' W 063°06'0 0.0
2018-Feb-23 21:29N 18°01' W 063°06'0 0.1
2018-Feb-23 20:50N 18°01' W 063°06'0 0.1
2018-Feb-23 20:20N 18°01' W 063°06'0 0.0
2018-Feb-23 19:50N 18°01' W 063°06'0 0.0
2018-Feb-23 19:20N 18°01' W 063°06'0 0.0
2018-Feb-23 18:53N 18°01' W 063°06'0 0.0
2018-Feb-23 18:20N 18°01' W 063°06'0 0.1
2018-Feb-23 17:53N 18°01' W 063°06'0 0.0
2018-Feb-23 17:23N 18°01' W 063°06'0 0.0
2018-Feb-23 16:53N 18°01' W 063°06'0 0.0
2018-Feb-23 16:23N 18°01' W 063°06'0 0.0
2018-Feb-23 15:53N 18°01' W 063°06'0 0.0
2018-Feb-23 15:23N 18°01' W 063°06'0 0.1
2018-Feb-23 14:50N 18°01' W 063°06'0 0.0
2018-Feb-23 14:23N 18°01' W 063°06'0 0.1
2018-Feb-23 13:56N 18°01' W 063°06'0 0.0
2018-Feb-23 13:26N 18°01' W 063°06'0 0.2
2018-Feb-23 13:00N 18°01' W 063°06'4 6.5
2018-Feb-23 12:27N 18°01' W 063°03'0 0.0
2018-Feb-23 12:00N 18°01' W 063°03'0 0.1
2018-Feb-23 11:26N 18°01' W 063°03'3 6.0
2018-Feb-23 10:57N 17°58' W 063°01'610.3
2018-Feb-23 10:20N 17°52' W 062°60'3 9.7
2018-Feb-23 09:59N 17°49' W 062°59'712.4
2018-Feb-23 09:27N 17°42' W 062°58'612.6
2018-Feb-23 08:59N 17°36' W 062°56'612.6
2018-Feb-23 08:30N 17°30' W 062°55'712.3
2018-Feb-23 07:56N 17°24' W 062°54'1312.0
2018-Feb-23 06:52N 17°13' W 062°47'512.0
2018-Feb-23 06:28N 17°09' W 062°44'612.7
2018-Feb-23 05:59N 17°04' W 062°41'612.3
2018-Feb-23 05:28N 16°59' W 062°37'1512.3
2018-Feb-23 04:14N 16°46' W 062°27'312.4
2018-Feb-23 04:00N 16°44' W 062°26'713.1
2018-Feb-23 03:27N 16°38' W 062°22'614.6
2018-Feb-23 03:01N 16°33' W 062°18'714.5
2018-Feb-23 02:30N 16°27' W 062°13'714.4
2018-Feb-23 02:01N 16°21' W 062°08'714.5
2018-Feb-23 01:30N 16°16' W 062°03'814.6
2018-Feb-23 00:59N 16°10' W 061°58'714.9
2018-Feb-23 00:29N 16°04' W 061°53'714.5
2018-Feb-23 00:01N 15°59' W 061°48'1611.8
2018-Feb-22 22:37N 16°02' W 061°32'414.0
2018-Feb-22 22:22N 16°06' W 061°31'512.7
2018-Feb-22 21:56N 16°12' W 061°31'3 6.2
2018-Feb-22 21:30N 16°14' W 061°33'0 0.0
2018-Feb-22 20:58N 16°14' W 061°33'0 0.0
2018-Feb-22 20:28N 16°14' W 061°33'0 0.0
2018-Feb-22 19:58N 16°14' W 061°33'0 0.0
2018-Feb-22 19:28N 16°14' W 061°33'0 0.0
2018-Feb-22 18:49N 16°14' W 061°33'0 0.0
2018-Feb-22 18:25N 16°14' W 061°33'0 0.0
2018-Feb-22 17:58N 16°14' W 061°33'0 0.0
2018-Feb-22 17:13N 16°14' W 061°33'0 0.0
2018-Feb-22 16:58N 16°14' W 061°33'0 0.0
2018-Feb-22 16:28N 16°14' W 061°33'0 0.0
2018-Feb-22 15:58N 16°14' W 061°33'0 0.0
2018-Feb-22 15:28N 16°14' W 061°33'0 0.0
2018-Feb-22 14:55N 16°14' W 061°33'0 0.0
2018-Feb-22 14:28N 16°14' W 061°33'0 0.0
2018-Feb-22 13:58N 16°14' W 061°33'0 0.0
2018-Feb-22 13:28N 16°14' W 061°33'0 0.0
2018-Feb-22 12:55N 16°14' W 061°33'0 0.0
2018-Feb-22 12:28N 16°14' W 061°33'0 0.0
2018-Feb-22 11:58N 16°14' W 061°33'0 0.0
2018-Feb-22 11:28N 16°14' W 061°33'0 0.0
2018-Feb-22 10:58N 16°14' W 061°33'0 0.3
2018-Feb-22 10:30N 16°14' W 061°33'4 8.3
2018-Feb-22 10:00N 16°10' W 061°31'5 9.1
2018-Feb-22 09:30N 16°06' W 061°30'17 5.8
2018-Feb-22 06:34N 15°59' W 061°46'2 8.3
2018-Feb-22 06:21N 16°01' W 061°47'11 8.8
2018-Feb-22 05:03N 16°10' W 061°55'0 9.4
2018-Feb-22 05:00N 16°10' W 061°55'18 9.2
2018-Feb-22 03:04N 16°22' W 062°09'1 9.5
2018-Feb-22 03:00N 16°22' W 062°09'5 9.3
2018-Feb-22 02:30N 16°26' W 062°12'4 8.9
2018-Feb-22 02:00N 16°29' W 062°15'4 8.9
2018-Feb-22 01:30N 16°33' W 062°18'5 8.6
2018-Feb-22 00:59N 16°37' W 062°20'4 9.1
2018-Feb-22 00:30N 16°40' W 062°23'5 9.1
2018-Feb-22 00:00N 16°44' W 062°26'4 8.5
2018-Feb-21 23:30N 16°48' W 062°28'7 8.6
2018-Feb-21 22:39N 16°54' W 062°33'1 8.6
2018-Feb-21 22:30N 16°55' W 062°34'5 8.8
2018-Feb-21 21:58N 16°58' W 062°36'4 8.7
2018-Feb-21 21:30N 17°02' W 062°39'4 8.6
2018-Feb-21 20:59N 17°05' W 062°42'4 8.9
2018-Feb-21 20:30N 17°09' W 062°44'12 8.6
2018-Feb-21 19:08N 17°18' W 062°51'3 8.6
2018-Feb-21 18:50N 17°21' W 062°53'3 9.0
2018-Feb-21 18:27N 17°24' W 062°54'4 8.9
2018-Feb-21 17:59N 17°28' W 062°54'4 8.7
2018-Feb-21 17:29N 17°32' W 062°54'5 8.8
2018-Feb-21 16:58N 17°37' W 062°54'4 8.5
2018-Feb-21 16:30N 17°41' W 062°54'4 8.6
2018-Feb-21 15:59N 17°45' W 062°54'4 8.5
2018-Feb-21 15:28N 17°49' W 062°54'4 8.7
2018-Feb-21 15:00N 17°53' W 062°54'1 0.3
2018-Feb-21 10:28N 17°54' W 062°52'5 9.4
2018-Feb-21 09:57N 17°56' W 062°57'6 9.8
2018-Feb-21 09:23N 17°59' W 063°02'1 2.5
2018-Feb-21 08:51N 18°01' W 063°03'0 0.0
2018-Feb-21 08:30N 18°01' W 063°03'0 0.0
2018-Feb-21 07:51N 18°01' W 063°03'0 0.0
2018-Feb-21 07:30N 18°01' W 063°03'0 0.0
2018-Feb-21 06:51N 18°01' W 063°03'0 0.0
2018-Feb-21 06:21N 18°01' W 063°03'0 0.0
2018-Feb-21 05:51N 18°01' W 063°03'0 0.0
2018-Feb-21 05:21N 18°01' W 063°03'0 0.0
2018-Feb-21 04:51N 18°01' W 063°03'0 0.0
2018-Feb-21 04:24N 18°01' W 063°03'0 0.0
2018-Feb-21 03:54N 18°01' W 063°03'0 0.0
2018-Feb-21 03:24N 18°01' W 063°03'0 0.0
2018-Feb-21 02:48N 18°01' W 063°03'0 0.0
2018-Feb-21 02:20N 18°01' W 063°03'0 0.0
2018-Feb-21 01:51N 18°01' W 063°03'0 0.0
2018-Feb-21 01:05N 18°01' W 063°03'0 0.0
2018-Feb-21 00:54N 18°01' W 063°03'0 0.0
2018-Feb-21 00:23N 18°01' W 063°03'0 0.0
2018-Feb-20 23:56N 18°01' W 063°03'0 0.0
2018-Feb-20 23:26N 18°01' W 063°03'0 0.2
2018-Feb-20 22:39N 18°01' W 063°03'1 7.5
2018-Feb-20 22:27N 17°60' W 063°04'612.9
2018-Feb-20 21:59N 17°59' W 063°10'612.6
2018-Feb-20 21:30N 17°57' W 063°17'712.6
2018-Feb-20 20:58N 17°56' W 063°24'612.2
2018-Feb-20 20:28N 17°55' W 063°30'611.8
2018-Feb-20 19:57N 17°53' W 063°36'611.7
2018-Feb-20 19:25N 17°52' W 063°42'  
2018-Feb-18 03:25N 18°08' W 063°39'4 8.2
2018-Feb-18 02:58N 18°07' W 063°36'4 8.1
2018-Feb-18 02:29N 18°06' W 063°32'4 8.4
2018-Feb-18 02:00N 18°05' W 063°27'4 8.3
2018-Feb-18 01:30N 18°04' W 063°23'4 8.0
2018-Feb-18 00:59N 18°04' W 063°19'4 8.1
2018-Feb-18 00:28N 18°03' W 063°15'4 7.9
2018-Feb-18 00:00N 18°02' W 063°11'4 8.4
2018-Feb-17 23:29N 18°01' W 063°06'4 6.0
2018-Feb-17 22:53N 18°01' W 063°03'0 0.0
2018-Feb-17 22:26N 18°01' W 063°03'0 0.0
2018-Feb-17 21:56N 18°01' W 063°03'0 0.0
2018-Feb-17 21:23N 18°01' W 063°03'0 0.0
2018-Feb-17 20:53N 18°01' W 063°03'0 0.0
2018-Feb-17 17:44N 18°01' W 063°03'0 0.1
2018-Feb-17 17:28N 18°01' W 063°03'4 8.0
2018-Feb-17 16:57N 17°58' W 062°60'7 0.5
2018-Feb-17 03:39N 17°55' W 062°53'2 8.5
2018-Feb-17 03:22N 17°55' W 062°55'512.5
2018-Feb-17 03:00N 17°58' W 062°60'4 7.6
2018-Feb-17 02:27N 18°01' W 063°03'0 0.0
2018-Feb-17 01:42N 18°01' W 063°03'0 0.0
2018-Feb-17 01:27N 18°01' W 063°03'0 0.0
2018-Feb-17 00:42N 18°01' W 063°03'0 0.0
2018-Feb-17 00:27N 18°01' W 063°03'0 0.0
2018-Feb-16 23:54N 18°01' W 063°03'0 0.0
2018-Feb-16 23:24N 18°01' W 063°03'0 0.0
2018-Feb-16 22:54N 18°01' W 063°03'0 0.0
2018-Feb-16 22:30N 18°01' W 063°03'0 0.0
2018-Feb-16 21:42N 18°01' W 063°03'0 0.0
2018-Feb-16 21:30N 18°01' W 063°03'0 0.0
2018-Feb-16 20:39N 18°01' W 063°03'0 0.0
2018-Feb-16 19:14N 18°01' W 063°03'0 0.0
2018-Feb-16 18:59N 18°01' W 063°03'0 0.0
2018-Feb-16 18:26N 18°01' W 063°03'0 0.0
2018-Feb-16 17:59N 18°01' W 063°03'0 0.0
2018-Feb-16 17:26N 18°01' W 063°03'0 0.0
2018-Feb-16 16:18N 18°01' W 063°03'0 0.0
2018-Feb-16 15:48N 18°01' W 063°03'0 0.0
2018-Feb-16 14:47N 18°01' W 063°03'1 0.8
2018-Feb-16 14:06N 18°00' W 063°03'2 7.6
2018-Feb-16 13:51N 17°59' W 063°02'711.5
2018-Feb-16 13:15N 17°52' W 062°60'2 9.5
2018-Feb-16 13:00N 17°50' W 062°59'612.0
2018-Feb-16 12:28N 17°44' W 062°58'612.0
2018-Feb-16 11:58N 17°38' W 062°57'712.0
2018-Feb-16 11:24N 17°31' W 062°55'511.6
2018-Feb-16 11:00N 17°26' W 062°55'1812.3
2018-Feb-16 09:30N 17°10' W 062°46'713.9
2018-Feb-16 09:00N 17°05' W 062°41'713.7
2018-Feb-16 08:29N 16°59' W 062°37'1613.7
2018-Feb-16 07:18N 16°46' W 062°27'413.7
2018-Feb-16 07:00N 16°43' W 062°24'713.4
2018-Feb-16 06:29N 16°37' W 062°20'613.5
2018-Feb-16 06:00N 16°32' W 062°15'713.9
2018-Feb-16 05:30N 16°27' W 062°11'713.7
2018-Feb-16 05:00N 16°21' W 062°07'713.3
2018-Feb-16 04:30N 16°16' W 062°03'713.3
2018-Feb-16 04:00N 16°11' W 061°58'1414.2
2018-Feb-16 03:00N 15°60' W 061°49'1910.3
2018-Feb-16 01:10N 16°08' W 061°31'511.0
2018-Feb-16 00:44N 16°13' W 061°32'1 4.7
2018-Feb-16 00:29N 16°14' W 061°33'0 0.0
2018-Feb-15 23:59N 16°14' W 061°33'0 0.0
2018-Feb-15 23:20N 16°14' W 061°33'0 0.0
2018-Feb-15 22:56N 16°14' W 061°33'0 0.0
2018-Feb-15 22:29N 16°14' W 061°33'0 0.0
2018-Feb-15 21:59N 16°14' W 061°33'0 0.0
2018-Feb-15 21:29N 16°14' W 061°33'0 0.0
2018-Feb-15 20:56N 16°14' W 061°33'0 0.0
2018-Feb-15 20:29N 16°14' W 061°33'0 0.0
2018-Feb-15 19:56N 16°14' W 061°33'0 0.0
2018-Feb-15 19:29N 16°14' W 061°33'0 0.0
2018-Feb-15 18:59N 16°14' W 061°33'0 0.0
2018-Feb-15 18:29N 16°14' W 061°33'0 0.0
2018-Feb-15 17:59N 16°14' W 061°33'0 0.0
2018-Feb-15 17:29N 16°14' W 061°33'0 0.0
2018-Feb-15 16:59N 16°14' W 061°33'0 0.0
2018-Feb-15 16:29N 16°14' W 061°33'0 0.0
2018-Feb-15 15:56N 16°14' W 061°33'0 0.2
2018-Feb-15 15:24N 16°14' W 061°33'3 7.9
2018-Feb-15 15:00N 16°11' W 061°31'5 8.5
2018-Feb-15 14:29N 16°07' W 061°31'43 6.6
2018-Feb-15 07:59N 16°25' W 062°11'5 9.6
2018-Feb-15 07:30N 16°28' W 062°14'5 9.1
2018-Feb-15 07:00N 16°32' W 062°17'4 8.7
2018-Feb-15 06:29N 16°36' W 062°19'4 8.9
2018-Feb-15 06:00N 16°39' W 062°22'4 9.1
2018-Feb-15 05:30N 16°43' W 062°25'5 9.2
2018-Feb-15 05:00N 16°47' W 062°28'5 9.2
2018-Feb-15 04:30N 16°50' W 062°30'5 9.3
2018-Feb-15 03:56N 16°55' W 062°34'4 9.1
2018-Feb-15 03:29N 16°58' W 062°36'4 9.1
2018-Feb-15 03:00N 17°02' W 062°39'5 8.9
2018-Feb-15 02:28N 17°05' W 062°42'4 8.9
2018-Feb-15 01:59N 17°09' W 062°45'11 9.0
2018-Feb-15 00:46N 17°18' W 062°51'17 8.9
2018-Feb-14 22:50N 17°34' W 062°56'3 8.9
2018-Feb-14 22:27N 17°38' W 062°57'4 9.0
2018-Feb-14 21:59N 17°42' W 062°58'4 9.2
2018-Feb-14 21:30N 17°46' W 062°59'5 9.1
2018-Feb-14 20:54N 17°52' W 062°60'5 9.2
2018-Feb-14 20:23N 17°56' W 063°01'4 8.7
2018-Feb-14 19:52N 18°00' W 063°03'0 1.0
2018-Feb-14 19:28N 18°01' W 063°03'0 0.0
2018-Feb-14 18:55N 18°01' W 063°03'0 0.0
2018-Feb-14 18:25N 18°01' W 063°03'0 0.0
2018-Feb-14 17:46N 18°01' W 063°03'0 0.0
2018-Feb-14 14:49N 18°01' W 063°03'0 0.0
2018-Feb-14 14:13N 18°01' W 063°03'0 0.0
2018-Feb-14 13:58N 18°01' W 063°03'0 0.0
2018-Feb-14 13:28N 18°01' W 063°03'0 0.0
2018-Feb-14 12:43N 18°01' W 063°03'0 0.0
2018-Feb-14 12:19N 18°01' W 063°03'0 0.0
2018-Feb-14 11:49N 18°01' W 063°03'0 0.0
2018-Feb-14 11:16N 18°01' W 063°03'0 0.0
2018-Feb-14 10:49N 18°01' W 063°03'0 0.0
2018-Feb-14 10:31N 18°01' W 063°03'1 1.9
2018-Feb-14 09:51N 18°00' W 063°04'4 6.4
2018-Feb-14 09:16N 18°01' W 063°08'2 6.2
2018-Feb-14 08:57N 18°01' W 063°10'3 5.7
2018-Feb-14 08:28N 18°01' W 063°13'3 6.2
2018-Feb-14 07:58N 18°02' W 063°16'3 5.9
2018-Feb-14 07:30N 18°02' W 063°19'3 6.5
2018-Feb-14 06:59N 18°03' W 063°22'4 6.9
2018-Feb-14 06:29N 18°04' W 063°26'4 6.9
2018-Feb-14 05:58N 18°04' W 063°30'3 6.6
2018-Feb-14 05:30N 18°05' W 063°33'3 6.6
2018-Feb-14 04:59N 18°05' W 063°36'3 6.6
2018-Feb-14 04:28N 18°06' W 063°40'3 6.7
2018-Feb-14 04:00N 18°06' W 063°43'3 6.7
2018-Feb-14 03:30N 18°07' W 063°47'  

Dump ship's entire track history